Startpagina
METAR-TAF:

METAR-TAF

Vliegvelden :

Angoulême, Frankrijk

breedte: 45-43-46N, lengte: 00-13-08E, hoogte: 132 m

Actueel weer

Dit bericht is 27 minuten geleden gemaakt, om 13:30 UTC
Wind 10 kt uit het oostzuidoosten, variërend tussen het oosten en het zuiden
Temperatuur 26°C
Vochtigheid 17%
Druk 1019 hPa
Zicht 10 km of meer
geen wolken onder 1500 m en geen cumulonimbus

METAR: LFBU 101330Z AUTO 12010KT 090V170 CAVOK 26/M01 Q1019

Tijdstip: 15:57 (13:57 UTC)


TAF: ontbreekt

Waarnemingen en weersverwachtingen van meer dan 4000 vliegvelden (METAR en TAF).

De beschikbare stations zijn de gele en rode punten op de kaart.

Ga met uw muis naar het station om de naam te zien.

Klik dan om waarnemingen en weersverwachtingen te zien.

kaart wijzigen: klik op de groene knoppen met een zwart kruis om in te zoomen, op de groene knop met een streepje om uit te zoomen of op de groene pijlen voor aangrenzende kaarten.


METAR-TAF: